INFORMAÇÕES METEOROLÓGICAS
METAR FOR SBSV
ADDS - METARS form results

(1208 UTC 24 April 2018)
Data provider http://aviationweather.gov/adds/metars/
 
METAR text: SBSV 241200Z 16008KT 5000 -RA BR BKN015 FEW020TCU BKN060 26/24 Q1017
Conditions at: SBSV (SALVADOR/DOIS JU, BR) observed 1200 UTC 24 April 2018
Temperature: 26.0°C (79°F)
Dewpoint: 24.0°C (75°F) [RH = 89%]
Pressure (altimeter): 30.03 inches Hg (1017.0 mb)
Winds: from the SSE (160 degrees) at 9 MPH (8 knots; 4.2 m/s)
Visibility: 3 miles (5 km)
Ceiling: 1500 feet AGL
Clouds: broken clouds at 1500 feet AGL
few clouds at 2000 feet AGL
broken clouds at 6000 feet AGL
Weather: -RA BR  (light rain, mist)

Forecast for: SBSV (SALVADOR/DOIS JU, BR)
Text: TAF SBSV 241000Z 2412/2512 12008KT 9000 SCT015 TX30/2415Z TN25/2508Z
Forecast period: 1200 UTC 24 April 2018 to 1200 UTC 25 April 2018
Forecast type: FROM: standard forecast or significant change
Winds: from the ESE (120 degrees) at 9 MPH (8 knots; 4.2 m/s)
Visibility: 6 miles (9 km)
Clouds: scattered clouds at 1500 feet AGL
Weather: no significant weather forecast for this period
Forecast for: SBSV (SALVADOR/DOIS JU, BR)
Text: TAF SBSV 241000Z 2412/2512 12008KT 9000 SCT015 TX30/2415Z TN25/2508Z
Forecast period: 1200 UTC 24 April 2018 to 1200 UTC 25 April 2018
Forecast type: FROM: standard forecast or significant change
Winds: from the ESE (120 degrees) at 9 MPH (8 knots; 4.2 m/s)
Visibility: 6 miles (9 km)
Clouds: scattered clouds at 1500 feet AGL
Weather: no significant weather forecast for this period
Forecast for: SBSV (SALVADOR/DOIS JU, BR)
Text: TAF SBSV 241000Z 2412/2512 12008KT 9000 SCT015 TX30/2415Z TN25/2508Z
Forecast period: 1200 to 1500 UTC 24 April 2018
Forecast type: TEMPORARY: The following changes expected for less than half the time period
Visibility: 3 miles (5 km)
Ceiling: 1500 feet AGL
Clouds: broken clouds at 1500 feet AGL
Weather: no significant weather forecast for this period
Forecast for: SBSV (SALVADOR/DOIS JU, BR)
Text: TAF SBSV 241000Z 2412/2512 12008KT 9000 SCT015 TX30/2415Z TN25/2508Z
Forecast period: 1200 to 1500 UTC 24 April 2018
Forecast type: TEMPORARY: The following changes expected for less than half the time period
Visibility: 3 miles (5 km)
Ceiling: 1500 feet AGL
Clouds: broken clouds at 1500 feet AGL
Weather: no significant weather forecast for this period

 MAPA DO AEROPORTO

 INFORMAÇÕES DA PISTA
Pista 10 Tamanho da pista 9859 ft Largura da pista 148 ft
Elevação da pista 30 ft Ranhura da pista 0 ft Proa da pista 78
Pista 28 Tamanho da pista 9859 ft Largura da pista 148 ft
Elevação da pista 64 ft Ranhura da pista 0 ft Proa da pista 258
Pista 17 Tamanho da pista 4987 ft Largura da pista 148 ft
Elevação da pista 28 ft Ranhura da pista 0 ft Proa da pista 143
Pista 35 Tamanho da pista 4987 ft Largura da pista 148 ft
Elevação da pista 34 ft Ranhura da pista 0 ft Proa da pista 323

 FREQUÊNCIAS DO AEROPORTO
Tipo APP Nome SALVADOR C Frequência 120.8 MHZ
Tipo ATIS Nome SALVADOR A Frequência 127.75 MHZ
Tipo CLD Nome SALVADOR T Frequência 121.1 MHZ
Tipo GND Nome GND Frequência 121.9 MHZ
Tipo OPS Nome SALVADOR O Frequência 122.5 MHZ
Tipo TWR Nome SALVADOR T Frequência 118.3 MHZ

 AUXÍLIOS DE NAVEGAÇÃO PRÓXIMOS AO AEROPORTO
Tipo NDB Nome Alagoinhas Frequência 310 KHZ
Tipo NDB Nome Cimbra Frequência 220 KHZ
Tipo NDB Nome Ipitanga Frequência 240 KHZ
Tipo VOR-DME Nome Salvador Frequência 116500 KHZ
Tipo NDB Nome Salvador Frequência 275 KHZ





Powered by Virtual Airlines Manager [v2.6.2]